createdAt,value
2019-01-17T00:01:05.273Z,6.00
2019-01-17T00:03:41.076Z,5.90
2019-01-17T00:06:14.319Z,5.90
2019-01-17T00:08:56.295Z,5.90
2019-01-17T00:11:46.260Z,5.90
2019-01-17T00:14:34.690Z,5.90
2019-01-17T00:17:10.745Z,5.80
2019-01-17T00:19:49.977Z,5.80
2019-01-17T00:22:38.385Z,5.80
2019-01-17T00:25:26.755Z,5.80
2019-01-17T00:28:09.042Z,5.80
2019-01-17T00:30:48.397Z,5.70
2019-01-17T00:33:37.095Z,5.70
2019-01-17T00:36:19.417Z,5.70
2019-01-17T00:38:58.772Z,5.60
2019-01-17T00:41:40.867Z,5.60
2019-01-17T00:44:26.136Z,5.60
2019-01-17T00:46:59.351Z,5.50
2019-01-17T00:49:36.076Z,5.50
2019-01-17T00:52:12.141Z,5.50
2019-01-17T00:54:50.279Z,5.50
2019-01-17T00:57:38.659Z,5.50
2019-01-17T01:00:18.703Z,5.50
2019-01-17T01:02:51.928Z,5.40
2019-01-17T01:05:28.584Z,5.40
2019-01-17T01:08:18.383Z,5.40
2019-01-17T01:10:57.493Z,5.30
2019-01-17T01:13:30.716Z,5.30
2019-01-17T01:16:07.261Z,5.30
2019-01-17T01:18:47.856Z,5.30
2019-01-17T01:21:36.212Z,5.30
2019-01-17T01:24:18.279Z,5.20
2019-01-17T01:26:51.529Z,5.20
2019-01-17T01:29:33.558Z,5.20
2019-01-17T01:32:09.621Z,5.20
2019-01-17T01:34:48.728Z,5.20
2019-01-17T01:37:27.618Z,5.20
2019-01-17T01:40:00.842Z,5.10
2019-01-17T01:42:50.804Z,5.10
2019-01-17T01:45:24.029Z,5.10
2019-01-17T01:48:02.934Z,5.10
2019-01-17T01:50:41.759Z,5.10
2019-01-17T01:53:13.073Z,5.10
2019-01-17T01:55:44.421Z,5.00
2019-01-17T01:58:15.765Z,5.00
2019-01-17T02:00:47.056Z,5.00
2019-01-17T02:03:18.403Z,5.00
2019-01-17T02:05:49.693Z,5.00
2019-01-17T02:08:21.003Z,5.00
2019-01-17T02:10:52.300Z,5.00
2019-01-17T02:13:23.773Z,5.00
2019-01-17T02:15:55.306Z,4.90
2019-01-17T02:18:26.632Z,4.90
2019-01-17T02:20:58.078Z,4.90
2019-01-17T02:23:29.404Z,4.90
2019-01-17T02:26:00.674Z,4.90
2019-01-17T02:28:32.101Z,4.90
2019-01-17T02:31:03.398Z,4.90
2019-01-17T02:33:34.824Z,4.90
2019-01-17T02:36:06.201Z,4.90
2019-01-17T02:38:37.578Z,4.90
2019-01-17T02:41:08.852Z,4.90
2019-01-17T02:43:40.186Z,4.90
2019-01-17T02:46:11.477Z,4.90
2019-01-17T02:48:42.944Z,5.00
2019-01-17T02:51:14.234Z,5.00
2019-01-17T02:53:45.567Z,5.00
2019-01-17T02:56:16.816Z,5.00
2019-01-17T02:58:48.224Z,5.00
2019-01-17T03:01:19.514Z,5.10
2019-01-17T03:03:51.313Z,5.10
2019-01-17T03:06:22.626Z,5.10
2019-01-17T03:08:53.914Z,5.10
2019-01-17T03:11:25.230Z,5.10
2019-01-17T03:13:56.572Z,5.10
2019-01-17T03:16:27.842Z,5.10
2019-01-17T03:18:59.304Z,5.10
2019-01-17T03:21:30.584Z,5.10
2019-01-17T03:24:01.918Z,5.10
2019-01-17T03:26:33.308Z,5.10
2019-01-17T03:29:04.699Z,5.10
2019-01-17T03:31:36.104Z,5.10
2019-01-17T03:34:26.760Z,5.10
2019-01-17T03:36:58.164Z,5.00
2019-01-17T03:39:29.464Z,5.00
2019-01-17T03:42:00.747Z,4.90
2019-01-17T03:44:32.067Z,5.00
2019-01-17T03:47:03.532Z,4.90
2019-01-17T03:49:34.824Z,4.90
2019-01-17T03:52:06.133Z,4.90
2019-01-17T03:54:37.424Z,4.90
2019-01-17T03:57:08.802Z,4.90
2019-01-17T03:59:40.351Z,4.80
2019-01-17T04:02:11.793Z,4.80
2019-01-17T04:04:43.175Z,4.80
2019-01-17T04:07:14.494Z,4.80
2019-01-17T04:09:45.819Z,4.70
2019-01-17T04:12:17.135Z,4.70
2019-01-17T04:14:48.413Z,4.70
2019-01-17T04:17:19.725Z,4.60
2019-01-17T04:27:46.804Z,4.60
2019-01-17T04:30:18.211Z,4.60
2019-01-17T04:32:49.502Z,4.60
2019-01-17T04:35:20.912Z,4.60
2019-01-17T04:37:52.216Z,4.70
2019-01-17T04:40:23.486Z,4.70
2019-01-17T04:42:54.836Z,4.70
2019-01-17T04:45:26.080Z,4.70
2019-01-17T04:47:57.453Z,4.70
2019-01-17T04:50:28.731Z,4.60
2019-01-17T04:53:00.127Z,4.60
2019-01-17T04:55:31.545Z,4.60
2019-01-17T04:58:02.922Z,4.50
2019-01-17T05:00:34.225Z,4.50
2019-01-17T05:03:05.539Z,4.50
2019-01-17T05:05:36.787Z,4.40
2019-01-17T05:08:08.183Z,4.40
2019-01-17T05:10:39.480Z,4.30
2019-01-17T05:13:10.832Z,4.30
2019-01-17T05:15:42.316Z,4.30
2019-01-17T05:18:13.633Z,4.30
2019-01-17T05:20:44.916Z,4.30
2019-01-17T05:26:05.622Z,4.30
2019-01-17T05:28:37.650Z,4.30
2019-01-17T05:31:09.237Z,4.30
2019-01-17T05:33:40.563Z,4.20
2019-01-17T05:36:13.688Z,4.20
2019-01-17T05:38:45.110Z,4.20
2019-01-17T05:41:16.406Z,4.20
2019-01-17T05:43:48.013Z,4.20
2019-01-17T05:46:19.330Z,4.20
2019-01-17T05:48:50.753Z,4.20
2019-01-17T05:51:22.048Z,4.20
2019-01-17T05:53:53.496Z,4.20
2019-01-17T05:56:24.791Z,4.10
2019-01-17T05:58:56.778Z,4.10
2019-01-17T06:01:28.183Z,4.10
2019-01-17T06:03:59.666Z,4.10
2019-01-17T06:06:33.115Z,4.10
2019-01-17T06:09:07.272Z,4.10
2019-01-17T06:11:38.741Z,4.10
2019-01-17T06:14:10.021Z,4.10
2019-01-17T06:16:41.328Z,4.10
2019-01-17T06:19:12.709Z,4.10
2019-01-17T06:21:44.100Z,4.10
2019-01-17T06:24:15.477Z,4.10
2019-01-17T06:26:46.775Z,4.10
2019-01-17T06:29:18.084Z,4.10
2019-01-17T06:31:49.635Z,4.10
2019-01-17T06:34:20.931Z,4.10
2019-01-17T06:36:52.250Z,4.10
2019-01-17T06:39:23.618Z,4.20
2019-01-17T06:41:54.924Z,4.20
2019-01-17T06:44:26.348Z,4.20
2019-01-17T06:46:57.811Z,4.20
2019-01-17T06:49:29.074Z,4.30
2019-01-17T06:52:00.496Z,4.30
2019-01-17T06:54:31.771Z,4.30
2019-01-17T06:57:03.103Z,4.30
2019-01-17T06:59:34.443Z,4.40
2019-01-17T07:02:05.770Z,4.40
2019-01-17T07:07:44.962Z,4.50
2019-01-17T07:10:16.748Z,4.50
2019-01-17T07:12:48.028Z,4.60
2019-01-17T07:15:37.609Z,4.60
2019-01-17T07:18:08.931Z,4.60
2019-01-17T07:20:40.227Z,4.70
2019-01-17T07:23:11.532Z,4.70
2019-01-17T07:25:42.813Z,4.80
2019-01-17T07:28:14.148Z,4.80
2019-01-17T07:30:45.629Z,4.80
2019-01-17T07:33:16.950Z,4.80
2019-01-17T07:35:48.338Z,4.90
2019-01-17T07:38:19.641Z,4.90
2019-01-17T07:40:50.984Z,4.90
2019-01-17T07:43:22.293Z,4.90
2019-01-17T07:45:53.915Z,5.00
2019-01-17T07:48:25.349Z,5.00
2019-01-17T07:50:56.761Z,5.00
2019-01-17T07:53:28.107Z,5.00
2019-01-17T07:55:59.630Z,5.00
2019-01-17T07:58:30.972Z,5.10
2019-01-17T08:01:02.248Z,5.10
2019-01-17T08:03:33.625Z,5.10
2019-01-17T08:06:05.106Z,5.10
2019-01-17T08:08:36.442Z,5.20
2019-01-17T08:11:07.754Z,5.20
2019-01-17T08:13:39.107Z,5.20
2019-01-17T08:16:10.386Z,5.20
2019-01-17T08:18:41.691Z,5.30
2019-01-17T08:21:13.003Z,5.30
2019-01-17T08:23:44.308Z,5.30
2019-01-17T08:26:15.597Z,5.30
2019-01-17T08:28:46.956Z,5.30
2019-01-17T08:31:18.377Z,5.30
2019-01-17T08:33:49.821Z,5.30
2019-01-17T08:36:21.229Z,5.30
2019-01-17T08:38:52.607Z,5.30
2019-01-17T08:41:23.896Z,5.30
2019-01-17T08:43:55.355Z,5.30
2019-01-17T08:46:26.650Z,5.20
2019-01-17T08:48:58.066Z,5.20
2019-01-17T08:51:29.466Z,5.20
2019-01-17T08:54:00.849Z,5.20
2019-01-17T08:56:32.388Z,5.20
2019-01-17T08:59:03.775Z,5.10
2019-01-17T09:01:35.204Z,5.10
2019-01-17T09:04:08.671Z,5.00
2019-01-17T09:06:39.972Z,5.00
2019-01-17T09:09:11.307Z,4.90
2019-01-17T09:11:42.598Z,4.90
2019-01-17T09:14:14.130Z,4.80
2019-01-17T09:16:45.522Z,4.80
2019-01-17T09:19:16.923Z,4.70
2019-01-17T09:21:48.376Z,4.60
2019-01-17T09:24:19.688Z,4.60
2019-01-17T09:26:50.958Z,4.50
2019-01-17T09:29:22.336Z,4.40
2019-01-17T09:31:53.612Z,4.20
2019-01-17T09:34:25.047Z,4.00
2019-01-17T09:36:56.341Z,3.80
2019-01-17T09:39:27.673Z,3.60
2019-01-17T09:41:58.958Z,3.40
2019-01-17T09:44:30.288Z,3.40
2019-01-17T09:47:01.760Z,3.30
2019-01-17T09:49:33.068Z,3.30
2019-01-17T09:52:04.374Z,3.30
2019-01-17T09:54:35.979Z,3.40
2019-01-17T09:57:07.298Z,3.40
2019-01-17T09:59:38.595Z,3.40
2019-01-17T10:02:09.926Z,3.50
2019-01-17T10:04:41.217Z,3.50
2019-01-17T10:07:12.533Z,3.60
2019-01-17T10:09:43.992Z,3.60
2019-01-17T10:12:15.278Z,3.60
2019-01-17T10:14:46.586Z,3.60
2019-01-17T10:17:23.601Z,3.70
2019-01-17T10:20:12.808Z,3.70
2019-01-17T10:23:01.499Z,3.80
2019-01-17T10:25:41.246Z,3.80
2019-01-17T10:28:27.032Z,3.80
2019-01-17T10:31:25.202Z,3.80
2019-01-17T10:34:07.995Z,3.80
2019-01-17T10:36:47.767Z,3.80
2019-01-17T10:39:40.032Z,3.80
2019-01-17T10:42:41.639Z,3.80
2019-01-17T10:45:57.095Z,3.90
2019-01-17T10:48:45.991Z,3.90
2019-01-17T10:52:03.745Z,3.90
2019-01-17T10:55:30.600Z,3.90
2019-01-17T10:58:31.004Z,3.90
2019-01-17T11:01:20.317Z,4.00
2019-01-17T11:04:22.929Z,4.00
2019-01-17T11:07:17.482Z,4.00
2019-01-17T11:10:03.244Z,4.10
2019-01-17T11:12:43.323Z,4.20
2019-01-17T11:15:51.209Z,4.20
2019-01-17T11:18:46.692Z,4.30
2019-01-17T11:21:40.314Z,4.30
2019-01-17T11:24:35.077Z,4.40
2019-01-17T11:27:35.186Z,4.40
2019-01-17T11:30:55.175Z,4.50
2019-01-17T11:33:53.719Z,4.50
2019-01-17T11:36:43.185Z,4.50
2019-01-17T11:39:29.488Z,4.50
2019-01-17T11:42:21.905Z,4.50
2019-01-17T11:45:15.899Z,4.40
2019-01-17T11:48:08.026Z,4.40
2019-01-17T11:50:57.191Z,4.40
2019-01-17T11:53:48.770Z,4.30
2019-01-17T11:56:26.033Z,4.30
2019-01-17T11:59:32.256Z,4.30
2019-01-17T12:02:39.663Z,4.30
2019-01-17T12:05:11.310Z,4.30
2019-01-17T12:07:42.765Z,4.30
2019-01-17T12:10:14.368Z,4.40
2019-01-17T12:12:46.686Z,4.40
2019-01-17T12:15:18.265Z,4.40
2019-01-17T12:17:49.649Z,4.50
2019-01-17T12:20:21.158Z,4.50
2019-01-17T12:22:52.625Z,4.50
2019-01-17T12:25:23.900Z,4.60
2019-01-17T12:28:00.196Z,4.60
2019-01-17T12:30:31.613Z,4.60
2019-01-17T12:33:03.193Z,4.60
2019-01-17T12:35:34.499Z,4.70
2019-01-17T12:38:05.816Z,4.70
2019-01-17T12:40:37.161Z,4.70
2019-01-17T12:43:08.488Z,4.80
2019-01-17T12:45:40.006Z,4.80
2019-01-17T12:48:11.497Z,4.80
2019-01-17T12:50:42.845Z,4.90
2019-01-17T12:53:14.202Z,4.90
2019-01-17T12:55:45.725Z,4.90
2019-01-17T12:58:17.061Z,4.90
2019-01-17T13:00:52.282Z,4.90
2019-01-17T13:03:23.646Z,4.90
2019-01-17T13:05:55.012Z,4.90
2019-01-17T13:08:26.418Z,4.90
2019-01-17T13:10:57.734Z,4.80
2019-01-17T13:13:29.189Z,4.80
2019-01-17T13:16:00.649Z,4.80
2019-01-17T13:18:33.429Z,4.80
2019-01-17T13:21:04.862Z,4.80
2019-01-17T13:23:36.426Z,4.80
2019-01-17T13:26:07.720Z,4.70
2019-01-17T13:28:39.196Z,4.70
2019-01-17T13:31:10.473Z,4.70
2019-01-17T13:33:41.891Z,4.70
2019-01-17T13:36:13.408Z,4.60
2019-01-17T13:38:44.701Z,4.50
2019-01-17T13:41:16.060Z,4.40
2019-01-17T13:43:47.439Z,4.30
2019-01-17T13:46:18.745Z,4.20
2019-01-17T13:48:50.158Z,4.20
2019-01-17T13:51:21.544Z,4.20
2019-01-17T13:53:53.120Z,4.20
2019-01-17T13:56:24.533Z,4.20
2019-01-17T13:58:56.024Z,4.20
2019-01-17T14:01:27.592Z,4.20
2019-01-17T14:03:58.898Z,4.20
2019-01-17T14:06:30.290Z,4.20
2019-01-17T14:09:01.674Z,4.20
2019-01-17T14:11:33.013Z,4.30
2019-01-17T14:14:04.433Z,4.30
2019-01-17T14:16:35.936Z,4.20
2019-01-17T14:19:07.419Z,4.20
2019-01-17T14:21:58.693Z,4.20
2019-01-17T14:24:30.474Z,4.10
2019-01-17T14:27:01.920Z,4.10
2019-01-17T14:29:34.009Z,4.00
2019-01-17T14:32:05.864Z,4.00
2019-01-17T14:34:37.433Z,4.00
2019-01-17T14:37:09.014Z,4.00
2019-01-17T14:39:40.310Z,4.00
2019-01-17T14:42:11.779Z,3.90
2019-01-17T14:44:44.191Z,3.80
2019-01-17T14:47:15.476Z,3.70
2019-01-17T14:49:46.874Z,3.60
2019-01-17T14:52:18.309Z,3.50
2019-01-17T14:54:50.361Z,3.50
2019-01-17T14:57:22.128Z,3.50
2019-01-17T14:59:53.760Z,3.50
2019-01-17T15:02:25.115Z,3.50
2019-01-17T15:04:56.612Z,3.50
2019-01-17T15:07:28.065Z,3.50
2019-01-17T15:09:59.495Z,3.50
2019-01-17T15:12:31.001Z,3.50
2019-01-17T15:15:05.257Z,3.40
2019-01-17T15:17:36.892Z,3.40
2019-01-17T15:20:17.676Z,3.40
2019-01-17T15:22:51.428Z,3.40
2019-01-17T15:25:22.757Z,3.40
2019-01-17T15:27:54.470Z,3.30
2019-01-17T15:30:26.102Z,3.30
2019-01-17T15:32:57.790Z,3.20
2019-01-17T15:35:29.124Z,3.20
2019-01-17T15:38:01.059Z,3.20
2019-01-17T15:40:32.497Z,3.10
2019-01-17T15:43:03.757Z,3.10
2019-01-17T15:45:35.289Z,3.10
2019-01-17T15:48:07.365Z,3.00
2019-01-17T15:50:39.033Z,3.00
2019-01-17T15:53:10.468Z,3.10
2019-01-17T15:55:42.266Z,3.10
2019-01-17T15:58:14.028Z,3.10
2019-01-17T16:00:45.772Z,3.10
2019-01-17T16:03:36.215Z,3.10
2019-01-17T16:06:08.237Z,3.10
2019-01-17T16:08:39.916Z,3.10
2019-01-17T16:11:11.278Z,3.10
2019-01-17T16:13:42.660Z,3.10
2019-01-17T16:16:14.293Z,3.00
2019-01-17T16:18:45.821Z,2.80
2019-01-17T16:21:18.190Z,2.60
2019-01-17T16:23:49.690Z,2.50
2019-01-17T16:26:21.340Z,2.40
2019-01-17T16:28:52.814Z,2.30
2019-01-17T16:31:24.831Z,2.30
2019-01-17T16:33:56.455Z,2.30
2019-01-17T16:36:27.738Z,2.30
2019-01-17T16:38:59.329Z,2.30
2019-01-17T16:41:30.689Z,2.30
2019-01-17T16:44:02.050Z,2.30
2019-01-17T16:46:33.440Z,2.40
2019-01-17T16:49:04.936Z,2.40
2019-01-17T16:51:36.245Z,2.40
2019-01-17T16:54:07.592Z,2.40
2019-01-17T16:56:38.859Z,2.40
2019-01-17T16:59:10.197Z,2.40
2019-01-17T17:01:59.990Z,2.40
2019-01-17T17:04:31.417Z,2.40
2019-01-17T17:07:02.721Z,2.40
2019-01-17T17:09:34.017Z,2.30
2019-01-17T17:12:05.307Z,2.20
2019-01-17T17:14:36.633Z,2.20
2019-01-17T17:17:07.931Z,2.10
2019-01-17T17:19:39.291Z,2.10
2019-01-17T17:22:10.688Z,2.00
2019-01-17T17:24:42.028Z,2.00
2019-01-17T17:27:13.395Z,2.00
2019-01-17T17:29:44.722Z,2.00
2019-01-17T17:32:16.095Z,1.90
2019-01-17T17:34:47.424Z,1.90
2019-01-17T17:37:18.731Z,1.90
2019-01-17T17:39:50.082Z,1.90
2019-01-17T17:42:21.582Z,1.90
2019-01-17T17:44:52.935Z,1.90
2019-01-17T17:47:24.573Z,1.90
2019-01-17T17:49:57.233Z,1.90
2019-01-17T17:52:28.742Z,1.90
2019-01-17T17:55:00.231Z,1.90
2019-01-17T17:57:31.818Z,1.90
2019-01-17T18:00:09.187Z,1.90
2019-01-17T18:02:40.992Z,1.90
2019-01-17T18:05:12.597Z,2.00
2019-01-17T18:07:44.022Z,2.00
2019-01-17T18:10:15.784Z,2.00
2019-01-17T18:12:51.144Z,2.00
2019-01-17T18:15:22.492Z,2.00
2019-01-17T18:17:54.044Z,2.10
2019-01-17T18:20:25.456Z,2.10
2019-01-17T18:22:56.835Z,2.10
2019-01-17T18:25:28.153Z,2.10
2019-01-17T18:27:59.518Z,2.00
2019-01-17T18:30:31.227Z,2.00
2019-01-17T18:33:03.247Z,2.00
2019-01-17T18:35:34.803Z,2.00
2019-01-17T18:38:06.202Z,2.00
2019-01-17T18:40:37.530Z,1.90
2019-01-17T18:43:08.908Z,1.90
2019-01-17T18:45:40.466Z,1.90
2019-01-17T18:48:12.173Z,1.90
2019-01-17T18:50:43.610Z,1.90
2019-01-17T18:53:14.895Z,1.80
2019-01-17T18:55:46.421Z,1.80
2019-01-17T18:58:17.694Z,1.80
2019-01-17T19:00:48.986Z,1.80
2019-01-17T19:03:20.673Z,1.70
2019-01-17T19:05:52.065Z,1.70
2019-01-17T19:08:25.151Z,1.70
2019-01-17T19:10:56.403Z,1.60
2019-01-17T19:13:27.813Z,1.70
2019-01-17T19:15:59.307Z,1.60
2019-01-17T19:18:30.613Z,1.70
2019-01-17T19:21:02.004Z,1.70
2019-01-17T19:23:33.319Z,1.70
2019-01-17T19:26:04.802Z,1.80
2019-01-17T19:28:36.571Z,1.80
2019-01-17T19:31:08.122Z,1.90
2019-01-17T19:33:39.886Z,1.90
2019-01-17T19:36:11.271Z,2.00
2019-01-17T19:38:42.914Z,2.00
2019-01-17T19:41:14.546Z,2.10
2019-01-17T19:43:45.854Z,2.10
2019-01-17T19:46:17.138Z,2.10
2019-01-17T19:48:48.515Z,2.10
2019-01-17T19:51:19.785Z,2.20
2019-01-17T19:53:51.223Z,2.20
2019-01-17T19:56:22.617Z,2.20
2019-01-17T19:58:53.974Z,2.20
2019-01-17T20:01:25.256Z,2.20
2019-01-17T20:03:56.740Z,2.20
2019-01-17T20:06:28.025Z,2.20
2019-01-17T20:08:59.437Z,2.20
2019-01-17T20:11:30.808Z,2.20
2019-01-17T20:14:02.530Z,2.20
2019-01-17T20:16:33.815Z,2.20
2019-01-17T20:19:05.431Z,2.20
2019-01-17T20:21:36.752Z,2.20
2019-01-17T20:24:08.060Z,2.20
2019-01-17T20:26:39.451Z,2.20
2019-01-17T20:29:10.959Z,2.20
2019-01-17T20:31:42.356Z,2.20
2019-01-17T20:34:32.400Z,2.20
2019-01-17T20:37:03.801Z,2.20
2019-01-17T20:39:36.589Z,2.30
2019-01-17T20:42:07.975Z,2.20
2019-01-17T20:44:39.488Z,2.30
2019-01-17T20:47:11.101Z,2.30
2019-01-17T20:49:42.599Z,2.30
2019-01-17T20:52:14.094Z,2.30
2019-01-17T20:54:45.507Z,2.30
2019-01-17T20:57:17.769Z,2.30
2019-01-17T20:59:49.034Z,2.30
2019-01-17T21:02:20.489Z,2.20
2019-01-17T21:04:51.893Z,2.20
2019-01-17T21:07:23.199Z,2.10
2019-01-17T21:09:54.484Z,2.00
2019-01-17T21:12:25.811Z,2.00
2019-01-17T21:14:57.104Z,1.90
2019-01-17T21:17:28.591Z,1.80
2019-01-17T21:20:01.625Z,1.80
2019-01-17T21:22:33.032Z,1.70
2019-01-17T21:25:12.890Z,1.70
2019-01-17T21:27:44.227Z,1.60
2019-01-17T21:30:24.838Z,1.60
2019-01-17T21:32:56.184Z,1.50
2019-01-17T21:35:27.482Z,1.50
2019-01-17T21:37:58.807Z,1.40
2019-01-17T21:40:30.083Z,1.40
2019-01-17T21:43:01.577Z,1.30
2019-01-17T21:45:32.851Z,1.30
2019-01-17T21:48:04.239Z,1.30
2019-01-17T21:50:35.644Z,1.20
2019-01-17T21:53:06.977Z,1.20
2019-01-17T21:55:38.418Z,1.10
2019-01-17T21:58:09.788Z,1.10
2019-01-17T22:00:41.174Z,1.10
2019-01-17T22:03:12.631Z,1.00
2019-01-17T22:05:44.118Z,1.00
2019-01-17T22:08:15.517Z,1.00
2019-01-17T22:10:46.807Z,1.00
2019-01-17T22:13:18.123Z,0.90
2019-01-17T22:15:49.473Z,0.90
2019-01-17T22:18:20.968Z,0.90
2019-01-17T22:20:52.296Z,0.90
2019-01-17T22:23:23.574Z,0.90
2019-01-17T22:25:54.930Z,0.90
2019-01-17T22:28:26.225Z,0.90
2019-01-17T22:30:57.632Z,1.00
2019-01-17T22:33:28.971Z,1.00
2019-01-17T22:36:00.260Z,1.00
2019-01-17T22:38:31.554Z,1.00
2019-01-17T22:41:03.133Z,1.10
2019-01-17T22:43:34.457Z,1.20
2019-01-17T22:46:05.844Z,1.30
2019-01-17T22:48:37.204Z,1.40
2019-01-17T22:51:08.575Z,1.40
2019-01-17T22:53:39.896Z,1.40
2019-01-17T22:56:11.201Z,1.40
2019-01-17T22:58:42.491Z,1.40
2019-01-17T23:01:15.198Z,1.50
2019-01-17T23:03:46.495Z,1.40
2019-01-17T23:06:17.826Z,1.40
2019-01-17T23:08:49.157Z,1.40
2019-01-17T23:11:20.811Z,1.40
2019-01-17T23:13:52.205Z,1.40
2019-01-17T23:16:23.558Z,1.30
2019-01-17T23:18:54.834Z,1.30
2019-01-17T23:21:26.266Z,1.30
2019-01-17T23:23:57.583Z,1.30
2019-01-17T23:26:28.912Z,1.30
2019-01-17T23:29:00.266Z,1.20
2019-01-17T23:31:31.556Z,1.20
2019-01-17T23:34:02.970Z,1.20
2019-01-17T23:36:34.288Z,1.20
2019-01-17T23:39:07.492Z,1.20
2019-01-17T23:41:40.725Z,1.10
2019-01-17T23:44:11.995Z,1.10
2019-01-17T23:46:43.400Z,1.10
2019-01-17T23:49:14.761Z,1.10
2019-01-17T23:51:46.042Z,1.10
2019-01-17T23:54:17.348Z,1.00
2019-01-17T23:56:48.650Z,1.00
2019-01-17T23:59:22.748Z,1.00
